createdAt,value
2023-04-29T00:00:11.194Z,101252.44
2023-04-29T00:02:39.062Z,101251.09
2023-04-29T00:05:07.880Z,101252.19
2023-04-29T00:07:36.399Z,101246.94
2023-04-29T00:10:06.561Z,101256.75
2023-04-29T00:12:34.399Z,101259.66
2023-04-29T00:15:03.093Z,101254.94
2023-04-29T00:17:30.996Z,101251.16
2023-04-29T00:19:58.695Z,101250.22
2023-04-29T00:22:26.411Z,101253.00
2023-04-29T00:24:54.255Z,101248.31
2023-04-29T00:27:23.386Z,101251.44
2023-04-29T00:29:51.226Z,101248.91
2023-04-29T00:32:19.105Z,101242.09
2023-04-29T00:34:46.746Z,101245.00
2023-04-29T00:37:14.422Z,101245.72
2023-04-29T00:39:42.076Z,101243.78
2023-04-29T00:42:11.131Z,101239.31
2023-04-29T00:44:40.365Z,101241.38
2023-04-29T00:47:11.371Z,101235.84
2023-04-29T00:49:39.729Z,101231.44
2023-04-29T00:52:08.702Z,101229.78
2023-04-29T00:54:36.774Z,101229.97
2023-04-29T00:57:07.183Z,101237.50
2023-04-29T00:59:35.050Z,101229.78
2023-04-29T01:02:04.872Z,101223.00
2023-04-29T01:04:32.698Z,101218.09
2023-04-29T01:07:10.137Z,101223.75
2023-04-29T01:09:51.630Z,101234.19
2023-04-29T01:12:23.430Z,101229.09
2023-04-29T01:15:01.662Z,101231.53
2023-04-29T01:17:35.964Z,101233.59
2023-04-29T01:20:05.620Z,101231.38
2023-04-29T01:22:33.335Z,101220.28
2023-04-29T01:25:02.356Z,101224.94
2023-04-29T01:27:35.434Z,101223.91
2023-04-29T01:30:11.561Z,101227.72
2023-04-29T01:32:52.309Z,101233.16
2023-04-29T01:35:31.227Z,101237.16
2023-04-29T01:38:11.017Z,101235.41
2023-04-29T01:40:48.674Z,101243.72
2023-04-29T01:43:18.339Z,101240.41
2023-04-29T01:45:46.287Z,101246.94
2023-04-29T01:48:14.339Z,101242.25
2023-04-29T01:50:42.044Z,101251.00
2023-04-29T01:53:09.783Z,101251.75
2023-04-29T01:55:37.537Z,101250.97
2023-04-29T01:58:06.618Z,101252.63
2023-04-29T02:00:34.347Z,101255.88
2023-04-29T02:03:02.233Z,101263.59
2023-04-29T02:05:32.365Z,101265.84
2023-04-29T02:08:00.144Z,101268.63
2023-04-29T02:10:27.921Z,101270.69
2023-04-29T02:12:55.754Z,101272.16
2023-04-29T02:15:27.658Z,101271.63
2023-04-29T02:17:55.710Z,101270.97
2023-04-29T02:20:23.459Z,101272.25
2023-04-29T02:22:51.424Z,101266.25
2023-04-29T02:25:19.126Z,101268.97
2023-04-29T02:27:46.851Z,101269.91
2023-04-29T02:30:14.612Z,101268.94
2023-04-29T02:32:43.688Z,101265.25
2023-04-29T02:35:12.594Z,101267.22
2023-04-29T02:37:40.376Z,101278.28
2023-04-29T02:40:09.364Z,101279.66
2023-04-29T02:42:37.889Z,101283.03
2023-04-29T02:45:06.542Z,101278.66
2023-04-29T02:47:34.316Z,101289.81
2023-04-29T02:50:04.801Z,101286.66
2023-04-29T02:52:32.739Z,101286.69
2023-04-29T02:55:00.432Z,101290.75
2023-04-29T02:57:29.620Z,101291.22
2023-04-29T02:59:57.467Z,101286.78
2023-04-29T03:02:25.309Z,101291.34
2023-04-29T03:04:53.351Z,101287.38
2023-04-29T03:07:22.693Z,101289.06
2023-04-29T03:09:50.711Z,101282.69
2023-04-29T03:12:18.516Z,101278.66
2023-04-29T03:14:46.231Z,101284.34
2023-04-29T03:17:14.068Z,101286.94
2023-04-29T03:19:41.990Z,101285.44
2023-04-29T03:22:10.622Z,101292.00
2023-04-29T03:24:40.101Z,101291.28
2023-04-29T03:27:07.816Z,101287.13
2023-04-29T03:29:35.687Z,101284.81
2023-04-29T03:32:03.461Z,101279.31
2023-04-29T03:34:31.326Z,101281.00
2023-04-29T03:36:59.769Z,101281.59
2023-04-29T03:39:28.213Z,101278.66
2023-04-29T03:41:57.314Z,101273.56
2023-04-29T03:44:25.121Z,101279.22
2023-04-29T03:46:52.896Z,101279.56
2023-04-29T03:49:20.604Z,101278.06
2023-04-29T03:51:48.311Z,101276.31
2023-04-29T03:54:16.149Z,101273.72
2023-04-29T03:56:44.103Z,101276.94
2023-04-29T03:59:13.150Z,101275.53
2023-04-29T04:01:40.861Z,101271.97
2023-04-29T04:04:08.795Z,101267.28
2023-04-29T04:06:36.617Z,101279.59
2023-04-29T04:09:04.514Z,101287.28
2023-04-29T04:11:32.224Z,101281.59
2023-04-29T04:13:59.939Z,101278.44
2023-04-29T04:16:29.002Z,101281.63
2023-04-29T04:18:56.709Z,101277.03
2023-04-29T04:21:25.228Z,101274.19
2023-04-29T04:23:52.923Z,101271.75
2023-04-29T04:26:21.577Z,101261.53
2023-04-29T04:28:49.508Z,101269.97
2023-04-29T04:31:17.315Z,101267.41
2023-04-29T04:33:46.384Z,101285.88
2023-04-29T04:36:14.515Z,101278.91
2023-04-29T04:38:42.194Z,101273.72
2023-04-29T04:41:09.944Z,101272.41
2023-04-29T04:43:37.652Z,101277.75
2023-04-29T04:46:11.837Z,101283.25
2023-04-29T04:48:39.740Z,101281.22
2023-04-29T04:51:12.467Z,101290.88
2023-04-29T04:53:41.057Z,101296.00
2023-04-29T04:56:09.504Z,101296.50
2023-04-29T04:58:37.170Z,101299.84
2023-04-29T05:01:05.063Z,101297.59
2023-04-29T05:03:32.997Z,101295.63
2023-04-29T05:06:01.757Z,101300.13
2023-04-29T05:08:30.936Z,101305.13
2023-04-29T05:10:58.719Z,101310.28
2023-04-29T05:13:26.864Z,101311.88
2023-04-29T05:15:54.637Z,101316.75
2023-04-29T05:18:23.420Z,101321.50
2023-04-29T05:20:51.096Z,101324.78
2023-04-29T05:23:18.784Z,101324.66
2023-04-29T05:25:47.870Z,101330.38
2023-04-29T05:28:15.511Z,101324.22
2023-04-29T05:30:43.717Z,101326.59
2023-04-29T05:33:12.033Z,101329.44
2023-04-29T05:35:39.823Z,101328.19
2023-04-29T05:38:07.536Z,101335.34
2023-04-29T05:40:35.380Z,101330.16
2023-04-29T05:43:04.450Z,101345.03
2023-04-29T05:45:32.108Z,101334.03
2023-04-29T05:47:59.899Z,101338.81
2023-04-29T05:50:27.590Z,101340.09
2023-04-29T05:52:56.476Z,101343.25
2023-04-29T05:55:24.531Z,101343.34
2023-04-29T05:57:52.207Z,101345.38
2023-04-29T06:00:21.765Z,101344.41
2023-04-29T06:02:58.092Z,101341.97
2023-04-29T06:05:27.629Z,101343.97
2023-04-29T06:07:55.887Z,101353.97
2023-04-29T06:10:23.718Z,101347.56
2023-04-29T06:12:51.883Z,101355.78
2023-04-29T06:15:21.076Z,101353.91
2023-04-29T06:17:49.387Z,101360.38
2023-04-29T06:20:18.249Z,101355.09
2023-04-29T06:22:46.329Z,101360.19
2023-04-29T06:25:14.123Z,101359.88
2023-04-29T06:27:41.927Z,101370.47
2023-04-29T06:30:11.582Z,101367.56
2023-04-29T06:32:41.023Z,101373.47
2023-04-29T06:35:09.733Z,101371.88
2023-04-29T06:37:38.244Z,101371.16
2023-04-29T06:40:07.460Z,101382.16
2023-04-29T06:42:35.184Z,101383.28
2023-04-29T06:45:02.865Z,101375.44
2023-04-29T06:47:31.099Z,101378.44
2023-04-29T06:50:00.225Z,101372.56
2023-04-29T06:52:27.931Z,101381.59
2023-04-29T06:54:55.643Z,101376.22
2023-04-29T06:57:23.475Z,101375.72
2023-04-29T06:59:51.479Z,101385.50
2023-04-29T07:02:19.452Z,101388.19
2023-04-29T07:04:49.036Z,101385.00
2023-04-29T07:07:18.217Z,101393.47
2023-04-29T07:09:46.041Z,101395.44
2023-04-29T07:12:13.790Z,101405.03
2023-04-29T07:14:41.962Z,101396.75
2023-04-29T07:17:09.997Z,101400.03
2023-04-29T07:19:39.220Z,101405.31
2023-04-29T07:22:06.904Z,101403.81
2023-04-29T07:24:35.969Z,101406.16
2023-04-29T07:27:04.376Z,101410.84
2023-04-29T07:29:32.562Z,101416.91
2023-04-29T07:32:00.213Z,101413.41
2023-04-29T07:34:28.003Z,101421.56
2023-04-29T07:36:56.219Z,101428.19
2023-04-29T07:39:23.984Z,101430.81
2023-04-29T07:41:53.141Z,101436.81
2023-04-29T07:44:22.132Z,101441.22
2023-04-29T07:46:49.881Z,101442.88
2023-04-29T07:49:17.569Z,101445.56
2023-04-29T07:51:45.399Z,101447.00
2023-04-29T07:54:13.162Z,101455.38
2023-04-29T07:56:40.874Z,101458.72
2023-04-29T07:59:09.917Z,101457.44
2023-04-29T08:01:37.659Z,101456.50
2023-04-29T08:04:05.552Z,101462.44
2023-04-29T08:06:33.362Z,101456.31
2023-04-29T08:09:02.150Z,101459.91
2023-04-29T08:11:30.944Z,101464.78
2023-04-29T08:14:00.086Z,101462.94
2023-04-29T08:16:29.269Z,101459.78
2023-04-29T08:18:57.074Z,101456.75
2023-04-29T08:21:24.928Z,101453.34
2023-04-29T08:23:53.487Z,101452.84
2023-04-29T08:26:22.554Z,101452.84
2023-04-29T08:28:51.318Z,101453.25
2023-04-29T08:31:19.074Z,101454.91
2023-04-29T08:33:48.609Z,101447.56
2023-04-29T08:36:16.328Z,101454.38
2023-04-29T08:38:44.302Z,101447.66
2023-04-29T08:41:12.312Z,101450.00
2023-04-29T08:43:41.092Z,101454.03
2023-04-29T08:46:09.351Z,101454.72
2023-04-29T08:48:41.411Z,101458.47
2023-04-29T08:51:14.428Z,101451.38
2023-04-29T08:53:42.287Z,101454.59
2023-04-29T08:56:17.483Z,101457.59
2023-04-29T08:58:46.393Z,101454.94
2023-04-29T09:01:15.385Z,101459.53
2023-04-29T09:03:48.411Z,101461.44
2023-04-29T09:06:18.554Z,101462.28
2023-04-29T09:08:46.427Z,101457.50
2023-04-29T09:11:15.223Z,101464.72
2023-04-29T09:13:42.893Z,101464.94
2023-04-29T09:16:12.877Z,101461.81
2023-04-29T09:18:45.364Z,101466.69
2023-04-29T09:21:22.035Z,101472.72
2023-04-29T09:23:52.396Z,101471.38
2023-04-29T09:26:20.714Z,101476.94
2023-04-29T09:28:49.785Z,101479.34
2023-04-29T09:31:28.916Z,101477.31
2023-04-29T09:33:58.987Z,101476.03
2023-04-29T09:36:44.897Z,101485.75
2023-04-29T09:39:15.049Z,101485.66
2023-04-29T09:42:00.045Z,101479.84
2023-04-29T09:44:32.112Z,101484.09
2023-04-29T09:47:03.815Z,101480.00
2023-04-29T09:49:35.677Z,101479.97
2023-04-29T09:52:06.024Z,101476.88
2023-04-29T09:54:36.280Z,101476.69
2023-04-29T09:57:06.034Z,101476.69
2023-04-29T09:59:36.108Z,101474.81
2023-04-29T10:02:09.350Z,101478.97
2023-04-29T10:04:41.715Z,101486.38
2023-04-29T10:07:15.042Z,101488.22
2023-04-29T10:09:42.671Z,101483.28
2023-04-29T10:12:11.011Z,101486.59
2023-04-29T10:14:43.344Z,101481.97
2023-04-29T10:17:17.392Z,101483.19
2023-04-29T10:19:53.665Z,101485.22
2023-04-29T10:22:30.872Z,101480.78
2023-04-29T10:25:00.226Z,101477.16
2023-04-29T10:27:28.956Z,101482.19
2023-04-29T10:29:59.924Z,101474.56
2023-04-29T10:32:36.977Z,101475.63
2023-04-29T10:35:13.663Z,101471.75
2023-04-29T10:37:43.435Z,101473.50
2023-04-29T10:40:16.282Z,101481.03
2023-04-29T10:42:46.335Z,101471.69
2023-04-29T10:45:26.947Z,101475.19
2023-04-29T10:48:13.091Z,101472.50
2023-04-29T10:51:03.496Z,101473.75
2023-04-29T10:53:32.865Z,101477.72
2023-04-29T10:56:06.321Z,101470.72
2023-04-29T10:58:46.011Z,101476.25
2023-04-29T11:01:15.316Z,101468.91
2023-04-29T11:03:48.264Z,101464.63
2023-04-29T11:06:16.684Z,101468.66
2023-04-29T11:08:45.863Z,101462.72
2023-04-29T11:11:15.386Z,101458.72
2023-04-29T11:13:47.144Z,101456.44
2023-04-29T11:16:15.019Z,101459.22
2023-04-29T11:19:06.928Z,101460.88
2023-04-29T11:21:35.897Z,101452.25
2023-04-29T11:24:06.353Z,101454.88
2023-04-29T11:26:35.906Z,101445.44
2023-04-29T11:29:03.753Z,101443.16
2023-04-29T11:31:32.202Z,101434.44
2023-04-29T11:34:00.533Z,101434.00
2023-04-29T11:36:28.465Z,101434.31
2023-04-29T11:38:56.385Z,101429.56
2023-04-29T11:41:25.552Z,101423.22
2023-04-29T11:43:57.622Z,101422.28
2023-04-29T11:46:26.200Z,101426.75
2023-04-29T11:48:53.982Z,101427.25
2023-04-29T11:51:22.519Z,101422.03
2023-04-29T11:53:50.440Z,101421.22
2023-04-29T11:56:18.171Z,101426.59
2023-04-29T11:58:47.276Z,101415.81
2023-04-29T12:01:15.181Z,101419.22
2023-04-29T12:03:46.429Z,101414.84
2023-04-29T12:06:15.136Z,101419.75
2023-04-29T12:08:42.930Z,101419.06
2023-04-29T12:11:10.597Z,101417.81
2023-04-29T12:13:38.659Z,101419.28
2023-04-29T12:16:08.780Z,101414.88
2023-04-29T12:18:36.607Z,101412.56
2023-04-29T12:21:04.444Z,101408.25
2023-04-29T12:23:32.182Z,101407.63
2023-04-29T12:26:02.681Z,101407.59
2023-04-29T12:28:30.610Z,101413.19
2023-04-29T12:31:00.209Z,101407.19
2023-04-29T12:33:31.449Z,101406.19
2023-04-29T12:36:00.175Z,101404.47
2023-04-29T12:38:29.003Z,101401.59
2023-04-29T12:40:57.569Z,101402.00
2023-04-29T12:43:28.247Z,101393.03
2023-04-29T12:45:57.551Z,101399.59
2023-04-29T12:48:33.626Z,101394.75
2023-04-29T12:51:02.174Z,101392.13
2023-04-29T12:53:31.449Z,101393.31
2023-04-29T12:55:59.623Z,101386.88
2023-04-29T12:58:30.057Z,101390.19
2023-04-29T13:00:58.244Z,101396.91
2023-04-29T13:03:26.884Z,101392.59
2023-04-29T13:05:56.140Z,101400.88
2023-04-29T13:08:23.901Z,101400.00
2023-04-29T13:10:51.840Z,101394.22
2023-04-29T13:13:19.712Z,101400.00
2023-04-29T13:15:47.534Z,101404.75
2023-04-29T13:18:15.757Z,101399.94
2023-04-29T13:20:43.494Z,101396.16
2023-04-29T13:23:13.037Z,101393.00
2023-04-29T13:25:41.087Z,101399.88
2023-04-29T13:28:08.810Z,101387.88
2023-04-29T13:30:36.878Z,101387.19
2023-04-29T13:33:11.784Z,101387.41
2023-04-29T13:35:41.641Z,101375.59
2023-04-29T13:38:09.795Z,101374.38
2023-04-29T13:40:45.496Z,101371.69
2023-04-29T13:43:20.940Z,101364.91
2023-04-29T13:45:53.207Z,101367.38
2023-04-29T13:53:52.817Z,101364.91
2023-04-29T14:01:54.706Z,101356.28
2023-04-29T14:04:02.635Z,101348.16
2023-04-29T14:06:30.502Z,101362.81
2023-04-29T14:08:58.216Z,101352.59
2023-04-29T14:11:27.351Z,101353.88
2023-04-29T14:13:55.105Z,101349.88
2023-04-29T14:16:23.006Z,101354.75
2023-04-29T14:18:51.004Z,101349.91
2023-04-29T14:21:18.746Z,101341.94
2023-04-29T14:23:46.480Z,101344.72
2023-04-29T14:26:27.094Z,101336.13
2023-04-29T14:28:58.310Z,101335.63
2023-04-29T14:31:28.036Z,101337.50
2023-04-29T14:33:56.062Z,101342.22
2023-04-29T14:36:23.855Z,101334.66
2023-04-29T14:38:51.537Z,101334.63
2023-04-29T14:41:21.276Z,101337.81
2023-04-29T14:43:48.985Z,101337.84
2023-04-29T14:46:18.416Z,101335.59
2023-04-29T14:48:46.200Z,101332.81
2023-04-29T14:51:13.852Z,101335.84
2023-04-29T14:53:41.616Z,101337.31
2023-04-29T14:56:09.693Z,101340.97
2023-04-29T14:58:37.407Z,101337.59
2023-04-29T15:01:05.199Z,101332.38
2023-04-29T15:03:40.188Z,101337.69
2023-04-29T15:06:11.466Z,101327.84
2023-04-29T15:08:39.545Z,101330.50
2023-04-29T15:11:07.265Z,101334.91
2023-04-29T15:13:34.995Z,101326.63
2023-04-29T15:16:03.981Z,101332.75
2023-04-29T15:18:31.888Z,101331.53
2023-04-29T15:21:01.037Z,101331.72
2023-04-29T15:23:28.709Z,101332.47
2023-04-29T15:25:57.499Z,101337.63
2023-04-29T15:28:25.917Z,101330.41
2023-04-29T15:30:53.598Z,101333.06
2023-04-29T15:33:21.342Z,101332.19
2023-04-29T15:35:49.111Z,101329.88
2023-04-29T15:38:18.416Z,101326.22
2023-04-29T15:40:46.454Z,101337.31
2023-04-29T15:43:14.226Z,101342.63
2023-04-29T15:45:42.516Z,101343.56
2023-04-29T15:48:10.361Z,101346.16
2023-04-29T15:50:38.107Z,101347.97
2023-04-29T15:53:05.855Z,101345.09
2023-04-29T15:55:36.131Z,101343.78
2023-04-29T15:58:03.843Z,101338.00
2023-04-29T16:00:31.686Z,101346.78
2023-04-29T16:02:59.543Z,101344.94
2023-04-29T16:05:27.324Z,101341.34
2023-04-29T16:07:55.052Z,101338.88
2023-04-29T16:10:23.507Z,101342.75
2023-04-29T16:12:52.557Z,101343.88
2023-04-29T16:15:20.615Z,101333.56
2023-04-29T16:17:48.365Z,101335.72
2023-04-29T16:20:17.266Z,101337.09
2023-04-29T16:22:44.967Z,101338.75
2023-04-29T16:25:12.823Z,101330.88
2023-04-29T16:27:40.523Z,101345.16
2023-04-29T16:30:10.750Z,101335.16
2023-04-29T16:32:38.630Z,101337.59
2023-04-29T16:35:07.050Z,101331.28
2023-04-29T16:37:34.739Z,101330.72
2023-04-29T16:40:02.511Z,101331.09
2023-04-29T16:42:30.258Z,101325.31
2023-04-29T16:44:58.005Z,101332.00
2023-04-29T16:47:27.136Z,101329.81
2023-04-29T16:49:55.503Z,101325.28
2023-04-29T16:52:24.061Z,101327.09
2023-04-29T16:54:51.781Z,101330.31
2023-04-29T16:57:21.341Z,101332.28
2023-04-29T16:59:49.021Z,101334.97
2023-04-29T17:02:16.742Z,101329.88
2023-04-29T17:04:46.281Z,101325.56
2023-04-29T17:07:14.319Z,101330.28
2023-04-29T17:09:42.090Z,101318.75
2023-04-29T17:12:10.267Z,101328.28
2023-04-29T17:14:40.301Z,101325.16
2023-04-29T17:17:08.259Z,101328.19
2023-04-29T17:19:36.009Z,101323.38
2023-04-29T17:22:05.099Z,101320.03
2023-04-29T17:24:33.612Z,101328.66
2023-04-29T17:27:01.377Z,101320.88
2023-04-29T17:29:29.125Z,101316.25
2023-04-29T17:31:59.912Z,101324.22
2023-04-29T17:34:29.880Z,101315.19
2023-04-29T17:36:57.700Z,101323.72
2023-04-29T17:39:26.718Z,101323.81
2023-04-29T17:41:54.453Z,101327.91
2023-04-29T17:44:23.591Z,101325.31
2023-04-29T17:46:51.533Z,101330.00
2023-04-29T17:49:19.274Z,101326.69
2023-04-29T17:51:46.986Z,101319.34
2023-04-29T17:54:14.718Z,101331.00
2023-04-29T17:56:43.733Z,101321.09
2023-04-29T17:59:11.810Z,101319.94
2023-04-29T18:01:39.912Z,101325.94
2023-04-29T18:04:07.752Z,101323.44
2023-04-29T18:06:35.787Z,101327.13
2023-04-29T18:09:04.139Z,101331.81
2023-04-29T18:11:31.970Z,101333.91
2023-04-29T18:14:01.111Z,101331.84
2023-04-29T18:16:28.959Z,101333.31
2023-04-29T18:18:57.221Z,101334.78
2023-04-29T18:21:25.525Z,101340.19
2023-04-29T18:23:53.319Z,101335.53
2023-04-29T18:26:21.204Z,101341.84
2023-04-29T18:28:49.087Z,101337.03
2023-04-29T18:31:18.609Z,101344.31
2023-04-29T18:33:46.465Z,101349.34
2023-04-29T18:36:14.712Z,101352.22
2023-04-29T18:38:43.129Z,101348.66
2023-04-29T18:41:11.944Z,101352.31
2023-04-29T18:43:39.686Z,101355.78
2023-04-29T18:46:07.545Z,101360.69
2023-04-29T18:48:38.308Z,101358.72
2023-04-29T18:51:06.080Z,101358.59
2023-04-29T18:53:34.290Z,101364.88
2023-04-29T18:56:02.091Z,101365.22
2023-04-29T18:58:29.804Z,101376.13
2023-04-29T19:00:59.796Z,101373.78
2023-04-29T19:03:27.863Z,101369.81
2023-04-29T19:05:56.966Z,101373.28
2023-04-29T19:08:24.748Z,101368.84
2023-04-29T19:10:53.438Z,101379.44
2023-04-29T19:13:21.257Z,101381.56
2023-04-29T19:15:50.763Z,101379.28
2023-04-29T19:18:20.148Z,101383.69
2023-04-29T19:20:48.820Z,101379.50
2023-04-29T19:23:18.545Z,101385.81
2023-04-29T19:25:46.271Z,101389.84
2023-04-29T19:28:14.053Z,101382.47
2023-04-29T19:30:41.726Z,101392.19
2023-04-29T19:33:09.517Z,101397.94
2023-04-29T19:35:37.335Z,101393.53
2023-04-29T19:38:05.060Z,101396.69
2023-04-29T19:40:34.083Z,101398.56
2023-04-29T19:43:01.769Z,101399.31
2023-04-29T19:45:29.507Z,101399.06
2023-04-29T19:47:59.567Z,101410.44
2023-04-29T19:50:27.494Z,101407.19
2023-04-29T19:52:55.232Z,101414.31
2023-04-29T19:55:23.028Z,101415.28
2023-04-29T19:57:52.532Z,101423.63
2023-04-29T20:00:20.507Z,101418.44
2023-04-29T20:02:50.776Z,101421.56
2023-04-29T20:05:19.579Z,101419.19
2023-04-29T20:07:47.243Z,101422.75
2023-04-29T20:10:15.380Z,101426.13
2023-04-29T20:12:43.146Z,101431.00
2023-04-29T20:15:12.689Z,101438.25
2023-04-29T20:17:40.466Z,101439.31
2023-04-29T20:20:09.915Z,101433.88
2023-04-29T20:22:37.696Z,101438.19
2023-04-29T20:25:05.844Z,101449.03
2023-04-29T20:27:33.633Z,101447.03
2023-04-29T20:30:01.514Z,101455.56
2023-04-29T20:32:30.744Z,101456.44
2023-04-29T20:34:58.499Z,101452.25
2023-04-29T20:37:26.202Z,101457.91
2023-04-29T20:39:54.085Z,101462.97
2023-04-29T20:42:22.207Z,101469.88
2023-04-29T20:44:49.947Z,101461.13
2023-04-29T20:47:17.624Z,101465.53
2023-04-29T20:49:46.697Z,101472.59
2023-04-29T20:52:14.357Z,101473.81
2023-04-29T20:54:42.177Z,101471.63
2023-04-29T20:57:09.868Z,101474.88
2023-04-29T20:59:37.631Z,101474.34
2023-04-29T21:02:05.508Z,101477.66
2023-04-29T21:04:33.344Z,101477.69
2023-04-29T21:07:05.590Z,101477.16
2023-04-29T21:09:33.418Z,101478.38
2023-04-29T21:12:01.383Z,101478.09
2023-04-29T21:14:29.135Z,101480.22
2023-04-29T21:16:56.803Z,101484.63
2023-04-29T21:19:24.541Z,101477.78
2023-04-29T21:21:52.510Z,101483.72
2023-04-29T21:24:21.564Z,101481.38
2023-04-29T21:26:50.347Z,101476.94
2023-04-29T21:29:18.046Z,101480.50
2023-04-29T21:31:45.862Z,101481.16
2023-04-29T21:34:13.717Z,101482.94
2023-04-29T21:36:41.460Z,101488.88
2023-04-29T21:39:09.940Z,101480.84
2023-04-29T21:41:40.404Z,101484.09
2023-04-29T21:44:08.449Z,101487.72
2023-04-29T21:46:37.040Z,101481.75
2023-04-29T21:49:05.035Z,101482.56
2023-04-29T21:51:32.877Z,101486.50
2023-04-29T21:54:01.057Z,101487.94
2023-04-29T21:56:28.806Z,101488.09
2023-04-29T21:58:57.872Z,101488.66
2023-04-29T22:01:40.263Z,101485.31
2023-04-29T22:04:08.439Z,101482.56
2023-04-29T22:06:36.264Z,101478.66
2023-04-29T22:09:04.925Z,101478.09
2023-04-29T22:11:33.573Z,101473.69
2023-04-29T22:14:02.690Z,101471.75
2023-04-29T22:16:30.563Z,101474.16
2023-04-29T22:18:58.770Z,101478.78
2023-04-29T22:21:27.873Z,101479.28
2023-04-29T22:23:55.972Z,101478.28
2023-04-29T22:26:25.497Z,101483.41
2023-04-29T22:28:53.403Z,101476.38
2023-04-29T22:31:22.578Z,101480.13
2023-04-29T22:33:50.924Z,101472.34
2023-04-29T22:36:18.885Z,101478.59
2023-04-29T22:38:46.606Z,101485.03
2023-04-29T22:41:14.850Z,101476.66
2023-04-29T22:43:42.568Z,101478.19
2023-04-29T22:46:10.453Z,101484.75
2023-04-29T22:48:39.577Z,101481.09
2023-04-29T22:51:07.425Z,101478.97
2023-04-29T22:53:35.177Z,101484.81
2023-04-29T22:56:03.162Z,101485.94
2023-04-29T22:58:31.561Z,101483.88
2023-04-29T23:00:59.422Z,101488.13
2023-04-29T23:03:27.827Z,101487.53
2023-04-29T23:06:00.312Z,101485.53
2023-04-29T23:08:28.295Z,101489.47
2023-04-29T23:10:56.025Z,101484.47
2023-04-29T23:13:23.845Z,101489.66
2023-04-29T23:15:52.284Z,101476.88
2023-04-29T23:18:20.070Z,101479.84
2023-04-29T23:20:48.202Z,101478.31
2023-04-29T23:23:17.224Z,101473.69
2023-04-29T23:25:45.642Z,101474.97
2023-04-29T23:28:13.456Z,101492.75
2023-04-29T23:30:41.186Z,101489.06
2023-04-29T23:33:09.044Z,101483.91
2023-04-29T23:35:36.960Z,101486.75
2023-04-29T23:38:04.710Z,101492.53
2023-04-29T23:40:34.170Z,101499.69
2023-04-29T23:43:01.865Z,101484.75
2023-04-29T23:45:29.911Z,101487.06
2023-04-29T23:47:57.633Z,101488.22
2023-04-29T23:50:25.427Z,101490.63
2023-04-29T23:52:53.452Z,101491.00
2023-04-29T23:55:21.338Z,101489.00
2023-04-29T23:57:50.363Z,101494.28
